KTA weather

Karratha Airport
Karratha, Western Australia, Australia

Public forecast

Using degrees Celsius for public forecast. Weather courtesy of forecast.io.

METAR (pilot weather report)

Closest report is Barrow Island Airport, 77.3 nm (143.1 km) W. Retrieved 2018/01/21 16:00 UTC (42 minutes ago):

YBWX 211600Z AUTO 27006KT //// // ////// 29/26 Q1004

TAF (pilot weather forecast)

Closest forecast is Port Hedland International Airport, 106.1 nm (196.5 km) E. Retrieved 2018/01/21 12:36 UTC (4 hours ago):

TAF YPPD 211012Z 2112/2212 32008KT CAVOK FM211500 27008KT 9999 SCT010 FM220000 27010KT 9999 SCT020 FM220400 30014KT CAVOK